Pope Air Force Base
KPOB : now visible

Airfield :











YOU CAN JOIN US ON...

 
LOGIN :

Register | Disclaimer

   EN    FR    IT 

 









Legend :    VFR   Marginal VFR   IFR   Intensive IFR   Very Intensive IFR
Visi :
Ceiling :
>= 8 km
>= 3000ft
5 to 8 km
1000 to 3000 ft
1500m to 5 km
500 to 1000 ft
800 to 1500m
200 to 500 ft
< 800m
< 200 ft
Symbols :   Thunderstorms  Fog  Heavy snow  Heavy precipitations  Wind > 20 kt







- Airport Elevation : 217 ft


KPOB - Pope Air Force Base

CURRENT METAR :
  • 201556Z AUTO 24017KT 10SM FEW044 17/06 A2978 RMK AO2 SLP086 T01650060 $

EXPIRED METARs :
  • 201456Z AUTO 22015G22KT 10SM SCT037 16/07 A2978 RMK AO2 SLP086 T01600067 52021 $
  • 201438Z AUTO 24016G22KT 10SM FEW032 16/07 A2978 RMK AO2 PRESRR SLP086 $
  • 201421Z AUTO 24017G21KT 10SM BKN033 16/08 A2976 RMK AO2 SLP080 $
  • 201406Z AUTO 23010KT 10SM BKN028 BKN035 15/08 A2976 RMK AO2 CIG 028V040 SLP080 $
  • 201356Z AUTO 25013G18KT 10SM SCT030 BKN040 15/08 A2976 RMK AO2 SLP080 T01460079 $
  • 201321Z AUTO 25013G24KT 10SM BKN030 OVC039 14/08 A2975 RMK AO2 SLP076 $

TAF AMD TAF KPOB
Valid from the 20 at 13:00 until the 21 at 15:00 UTC


201308Z 2013/2115 23012G18KT 9999 SCT030 QNH2955INS
BECMG 2013/2014 22015G25KT 9999 BKN030 520105 QNH2978INS
TEMPO 2017/2021 21025G35KT
BECMG 2022/2023 25008KT 9999 SCT030 BKN060 QNH2986INS TX21/2018Z TN13/2013Z
KZDC FIR / North America



MET'MAP, your aeronautical weather chart ! - Copyright ORBIFLY December 2007 - Disclaimer

ORBIFLY MET'MAP TEAM :

Programming & Development : Alexandra Zaïnal
Concept & Development : Baudouin d'Aumeries
Co-Development & Prog : Marc-Olivier Méhu
Technical & hardware support : Manuel Goepfert

Contact : metmap@orbifly.com




SOURCES & CREDITS :

   NOAA       Earth
Advisory